createdAt,value
2022-12-19T00:02:03.718Z,-28.4
2022-12-19T00:04:07.909Z,-28.1
2022-12-19T00:08:15.471Z,-28
2022-12-19T00:10:10.761Z,-27.9
2022-12-19T00:12:17.512Z,-28
2022-12-19T00:14:14.140Z,-28
2022-12-19T00:20:18.766Z,-27.9
2022-12-19T00:22:20.035Z,-28.2
2022-12-19T00:24:21.942Z,-28.2
2022-12-19T00:26:23.646Z,-28.1
2022-12-19T00:28:25.272Z,-28.2
2022-12-19T00:30:26.471Z,-28.3
2022-12-19T00:34:30.014Z,-28.1
2022-12-19T00:36:31.889Z,-27.9
2022-12-19T00:38:33.933Z,-28
2022-12-19T00:40:36.015Z,-28
2022-12-19T00:44:39.259Z,-28.1
2022-12-19T00:46:40.697Z,-28.1
2022-12-19T00:50:43.962Z,-28
2022-12-19T00:52:45.974Z,-28.2
2022-12-19T00:54:47.523Z,-28
2022-12-19T00:56:48.596Z,-28.2
2022-12-19T01:02:53.404Z,-28.2
2022-12-19T01:04:54.429Z,-28
2022-12-19T01:06:56.687Z,-27.9
2022-12-19T01:08:57.161Z,-28.2
2022-12-19T01:10:58.751Z,-28.2
2022-12-19T01:13:00.097Z,-28
2022-12-19T01:15:04.125Z,-28.2
2022-12-19T01:17:03.217Z,-28.3
2022-12-19T01:19:04.897Z,-28.2
2022-12-19T01:21:06.514Z,-28
2022-12-19T01:23:08.186Z,-28.2
2022-12-19T01:25:09.752Z,-28
2022-12-19T01:29:12.921Z,-28.2
2022-12-19T01:33:15.710Z,-28.3
2022-12-19T01:35:21.448Z,-28
2022-12-19T01:37:19.529Z,-28
2022-12-19T01:39:20.702Z,-28
2022-12-19T01:41:22.122Z,-28.1
2022-12-19T01:45:30.346Z,-28.2
2022-12-19T01:49:28.974Z,-27.8
2022-12-19T01:51:31.001Z,-28.2
2022-12-19T01:53:32.116Z,-28.2
2022-12-19T01:55:33.690Z,-28.1
2022-12-19T01:57:35.719Z,-27.9
2022-12-19T01:59:36.961Z,-28
2022-12-19T02:01:38.182Z,-27.9
2022-12-19T02:03:40.147Z,-28.2
2022-12-19T02:05:42.156Z,-28.2
2022-12-19T02:09:45.149Z,-28.1
2022-12-19T02:11:46.340Z,-28.2
2022-12-19T02:13:47.974Z,-28.3
2022-12-19T02:15:49.178Z,-28.2
2022-12-19T02:17:52.681Z,-28.2
2022-12-19T02:19:52.347Z,-28.2
2022-12-19T02:21:54.579Z,-28.2
2022-12-19T02:23:54.753Z,-27.9
2022-12-19T02:25:56.694Z,-28.2
2022-12-19T02:27:57.687Z,-27.9
2022-12-19T02:32:44.686Z,-27.9
2022-12-19T02:38:49.649Z,-28.1
2022-12-19T02:40:53.029Z,-27.9
2022-12-19T02:42:53.352Z,-28
2022-12-19T02:44:54.622Z,-28.3
2022-12-19T02:46:56.677Z,-28
2022-12-19T02:48:58.247Z,-28.1
2022-12-19T02:50:59.926Z,-28.3
2022-12-19T02:53:01.898Z,-28
2022-12-19T02:55:03.945Z,-28.3
2022-12-19T02:57:05.578Z,-28.3
2022-12-19T02:59:07.448Z,-28.2
2022-12-19T03:01:08.608Z,-28.3
2022-12-19T03:03:10.544Z,-28.4
2022-12-19T03:05:12.188Z,-28.2
2022-12-19T03:09:15.835Z,-28.2
2022-12-19T03:11:17.581Z,-28
2022-12-19T03:13:19.641Z,-28
2022-12-19T03:15:21.181Z,-27.9
2022-12-19T03:21:25.125Z,-28.3
2022-12-19T03:23:26.839Z,-28.3
2022-12-19T03:25:28.230Z,-27.9
2022-12-19T03:27:30.068Z,-27.9
2022-12-19T03:29:31.811Z,-28.2
2022-12-19T03:31:33.768Z,-28.3
2022-12-19T03:33:35.316Z,-27.9
2022-12-19T03:35:36.802Z,-27.9
2022-12-19T03:37:38.495Z,-27.9
2022-12-19T03:39:39.949Z,-28
2022-12-19T03:41:42.013Z,-28.2
2022-12-19T03:43:43.763Z,-28.3
2022-12-19T03:45:45.390Z,-28
2022-12-19T03:47:46.446Z,-28.2
2022-12-19T03:51:49.534Z,-28.3
2022-12-19T03:53:50.711Z,-28
2022-12-19T03:55:52.578Z,-28.4
2022-12-19T03:57:53.663Z,-28.3
2022-12-19T04:03:59.117Z,-28.2
2022-12-19T04:06:00.806Z,-27.9
2022-12-19T04:08:02.878Z,-28.2
2022-12-19T04:10:04.028Z,-27.9
2022-12-19T04:12:05.181Z,-28.1
2022-12-19T04:14:07.128Z,-28.3
2022-12-19T04:16:08.868Z,-28.3
2022-12-19T04:18:10.520Z,-27.9
2022-12-19T04:20:11.879Z,-28.1
2022-12-19T04:22:13.557Z,-27.8
2022-12-19T04:24:14.988Z,-28.1
2022-12-19T04:26:17.076Z,-27.9
2022-12-19T04:28:19.072Z,-28.2
2022-12-19T04:30:20.172Z,-28.2
2022-12-19T04:34:23.094Z,-28.2
2022-12-19T04:36:24.916Z,-27.7
2022-12-19T04:38:26.529Z,-28.2
2022-12-19T04:40:27.795Z,-28.2
2022-12-19T04:42:29.508Z,-28.1
2022-12-19T04:46:32.511Z,-28
2022-12-19T04:48:33.932Z,-28
2022-12-19T04:50:35.075Z,-28.2
2022-12-19T04:52:36.763Z,-28.2
2022-12-19T04:54:38.059Z,-28.2
2022-12-19T04:56:39.586Z,-28.4
2022-12-19T05:02:44.603Z,-27.8
2022-12-19T05:04:46.221Z,-27.9
2022-12-19T05:06:47.519Z,-28.1
2022-12-19T05:08:49.323Z,-28
2022-12-19T05:10:50.454Z,-28.2
2022-12-19T05:12:51.938Z,-28.1
2022-12-19T05:14:53.169Z,-28.2
2022-12-19T05:17:00.516Z,-28.2
2022-12-19T05:18:56.269Z,-28.2
2022-12-19T05:23:03.871Z,-28
2022-12-19T05:25:01.679Z,-28.1
2022-12-19T05:27:02.825Z,-28.1
2022-12-19T05:29:04.214Z,-28.4
2022-12-19T05:31:06.261Z,-28.2
2022-12-19T05:33:07.734Z,-28
2022-12-19T05:35:09.696Z,-28
2022-12-19T05:37:10.870Z,-28.4
2022-12-19T05:39:12.130Z,-28.3
2022-12-19T05:45:17.487Z,-28.2
2022-12-19T05:47:18.591Z,-28.2
2022-12-19T05:49:20.518Z,-28.1
2022-12-19T05:51:22.296Z,-28.1
2022-12-19T05:53:26.039Z,-27.9
2022-12-19T05:55:26.276Z,-28.2
2022-12-19T05:57:27.710Z,-28.2
2022-12-19T05:59:29.169Z,-28.3
2022-12-19T06:01:30.432Z,-27.9
2022-12-19T06:05:33.453Z,-28.2
2022-12-19T06:07:34.760Z,-28.3
2022-12-19T06:09:35.882Z,-28.2
2022-12-19T06:11:37.636Z,-27.7
2022-12-19T06:13:38.980Z,-28
2022-12-19T06:15:40.714Z,-28
2022-12-19T06:17:42.717Z,-28.2
2022-12-19T06:19:44.016Z,-28
2022-12-19T06:21:48.366Z,-28.2
2022-12-19T06:27:50.218Z,-28
2022-12-19T06:29:52.070Z,-28.1
2022-12-19T06:31:53.849Z,-28.3
2022-12-19T06:33:55.624Z,-28.1
2022-12-19T06:35:57.327Z,-28.2
2022-12-19T06:38:00.980Z,-28.3
2022-12-19T06:42:02.379Z,-28.2
2022-12-19T06:44:03.696Z,-28
2022-12-19T06:48:06.804Z,-28
2022-12-19T06:50:08.506Z,-28
2022-12-19T06:52:10.365Z,-28.4
2022-12-19T06:54:11.826Z,-28.3
2022-12-19T06:56:13.797Z,-28
2022-12-19T06:58:15.650Z,-28.1
2022-12-19T07:00:16.811Z,-28.2
2022-12-19T07:02:18.193Z,-28.3
2022-12-19T07:04:20.220Z,-28.1
2022-12-19T07:10:25.196Z,-27.9
2022-12-19T07:12:26.794Z,-28
2022-12-19T07:14:28.372Z,-28.2
2022-12-19T07:16:29.844Z,-27.9
2022-12-19T07:18:31.099Z,-28.2
2022-12-19T07:20:32.997Z,-27.9
2022-12-19T07:22:34.858Z,-28.1
2022-12-19T07:24:36.085Z,-28
2022-12-19T07:26:37.640Z,-28
2022-12-19T07:30:40.608Z,-27.9
2022-12-19T07:32:42.197Z,-28.2
2022-12-19T07:34:44.187Z,-28
2022-12-19T07:36:45.896Z,-28.2
2022-12-19T07:38:47.112Z,-28.1
2022-12-19T07:40:49.036Z,-28
2022-12-19T07:42:50.231Z,-27.9
2022-12-19T07:44:51.540Z,-27.8
2022-12-19T07:46:53.031Z,-28
2022-12-19T07:50:55.686Z,-28.3
2022-12-19T07:52:57.352Z,-28
2022-12-19T07:54:58.435Z,-27.9
2022-12-19T07:57:00.487Z,-27.9
2022-12-19T07:59:01.974Z,-27.9
2022-12-19T08:01:04.060Z,-28
2022-12-19T08:03:05.737Z,-28
2022-12-19T08:07:08.132Z,-28.4
2022-12-19T08:09:09.540Z,-27.6
2022-12-19T08:11:10.956Z,-28.3
2022-12-19T08:13:12.261Z,-28
2022-12-19T08:19:16.568Z,-28.1
2022-12-19T08:21:18.192Z,-27.8
2022-12-19T08:23:19.823Z,-27.9
2022-12-19T08:25:21.118Z,-28.2
2022-12-19T08:27:22.309Z,-27.9
2022-12-19T08:29:23.938Z,-28.1
2022-12-19T08:31:25.194Z,-28.2
2022-12-19T08:33:26.756Z,-28
2022-12-19T08:35:28.028Z,-28
2022-12-19T08:37:29.453Z,-28.2
2022-12-19T08:39:30.834Z,-28.2
2022-12-19T08:41:32.798Z,-27.9
2022-12-19T08:43:34.345Z,-27.9
2022-12-19T08:45:35.795Z,-28.2
2022-12-19T08:47:37.762Z,-27.8
2022-12-19T08:49:38.863Z,-26.7
2022-12-19T08:51:40.525Z,-25.4
2022-12-19T08:53:42.463Z,-25.7
2022-12-19T08:55:43.543Z,-26.9
2022-12-19T08:57:45.304Z,-27
2022-12-19T08:59:46.299Z,-26.8
2022-12-19T09:01:48.157Z,-26.6
2022-12-19T09:06:02.860Z,-22
2022-12-19T09:07:52.176Z,-20.2
2022-12-19T09:09:54.080Z,-21
2022-12-19T09:11:54.677Z,-24.5
2022-12-19T09:14:40.279Z,-19
2022-12-19T09:16:42.262Z,-20.6
2022-12-19T09:18:48.394Z,-25.8
2022-12-19T09:20:45.300Z,-25.9
2022-12-19T09:22:46.490Z,-25.8
2022-12-19T09:26:49.270Z,-25.9
2022-12-19T09:28:51.059Z,-26.7
2022-12-19T09:30:52.723Z,-26.7
2022-12-19T09:32:54.588Z,-26.6
2022-12-19T09:34:56.597Z,-26.5
2022-12-19T09:36:57.993Z,-26.6
2022-12-19T09:38:59.492Z,-27
2022-12-19T09:41:01.093Z,-27
2022-12-19T09:43:02.434Z,-26.6
2022-12-19T09:45:04.007Z,-26.8
2022-12-19T09:47:05.406Z,-26.7
2022-12-19T09:51:09.931Z,-26.3
2022-12-19T09:53:10.432Z,-25.2
2022-12-19T09:55:12.167Z,-15.5
2022-12-19T09:57:13.478Z,-10.1
2022-12-19T09:59:15.304Z,-5.5
2022-12-19T10:01:16.652Z,-2.8
2022-12-19T10:03:18.029Z,5.5
2022-12-19T10:05:29.358Z,7.3
2022-12-19T10:12:34.841Z,22.2
2022-12-19T10:13:26.098Z,30.3
2022-12-19T10:15:27.616Z,29.5
2022-12-19T10:17:28.871Z,22
2022-12-19T10:19:30.035Z,25.2
2022-12-19T10:21:43.167Z,13.5
2022-12-19T10:23:33.125Z,12.1
2022-12-19T10:25:34.812Z,15.4
2022-12-19T10:27:36.311Z,16.1
2022-12-19T10:31:38.626Z,19.9
2022-12-19T10:33:40.095Z,28.4
2022-12-19T10:35:42.005Z,26.2
2022-12-19T10:37:49.056Z,14.5
2022-12-19T10:39:44.742Z,13.7
2022-12-19T10:41:46.394Z,16.7
2022-12-19T10:43:47.678Z,16
2022-12-19T10:45:48.887Z,8.3
2022-12-19T10:47:50.817Z,2.8
2022-12-19T10:53:54.218Z,-5.4
2022-12-19T10:55:55.703Z,-12.3
2022-12-19T10:57:56.823Z,-19.79
2022-12-19T10:59:58.111Z,-19.4
2022-12-19T11:02:00.612Z,-9.89
2022-12-19T11:04:01.650Z,-6.8
2022-12-19T11:08:04.297Z,9.5
2022-12-19T11:10:36.826Z,14.9
2022-12-19T11:12:32.342Z,9.5
2022-12-19T11:16:42.071Z,2.6
2022-12-19T11:23:42.534Z,-17.7
2022-12-19T11:29:29.604Z,-27
2022-12-19T11:30:23.995Z,-24.7
2022-12-19T11:31:25.922Z,-28
2022-12-19T11:34:22.397Z,-26.9
2022-12-19T11:36:24.257Z,-26.3
2022-12-19T11:38:26.114Z,-24.3
2022-12-19T11:40:28.092Z,-18.1
2022-12-19T11:42:29.660Z,-4.19
2022-12-19T11:44:31.025Z,4.4
2022-12-19T11:46:32.691Z,6.6
2022-12-19T11:48:34.457Z,8.89
2022-12-19T11:50:36.029Z,8.5
2022-12-19T11:53:03.256Z,9.5
2022-12-19T11:54:38.817Z,17
2022-12-19T11:56:40.345Z,19.7
2022-12-19T11:58:42.358Z,21.1
2022-12-19T12:00:44.038Z,25.1
2022-12-19T12:02:45.386Z,28.8
2022-12-19T12:06:48.449Z,49.9
2022-12-19T12:09:51.807Z,36.09
2022-12-19T12:26:01.288Z,36.2
2022-12-19T12:27:29.844Z,54.9
2022-12-19T12:31:32.744Z,48.4
2022-12-19T12:31:36.395Z,71.1
2022-12-19T12:31:37.365Z,40.7
2022-12-19T12:31:37.917Z,43.4
2022-12-19T12:35:07.908Z,78.1
2022-12-19T12:39:15.954Z,17.6
2022-12-19T12:41:15.774Z,7.1
2022-12-19T12:43:17.598Z,5.9
2022-12-19T12:45:19.333Z,3.1
2022-12-19T12:49:22.139Z,0.1
2022-12-19T12:51:23.611Z,-2.8
2022-12-19T12:53:25.337Z,-4.9
2022-12-19T12:55:26.987Z,-5.7
2022-12-19T13:01:32.001Z,-17.7
2022-12-19T13:03:33.747Z,-25.7
2022-12-19T13:05:35.310Z,-25.8
2022-12-19T13:07:36.805Z,-26.9
2022-12-19T13:09:38.817Z,-27
2022-12-19T13:11:40.582Z,-24.5
2022-12-19T13:13:42.230Z,-24.9
2022-12-19T13:15:43.507Z,-26.1
2022-12-19T13:17:45.253Z,-25.7
2022-12-19T13:19:46.526Z,-25.4
2022-12-19T13:21:48.402Z,-25.2
2022-12-19T13:23:50.052Z,-23
2022-12-19T13:25:51.779Z,-22.8
2022-12-19T13:27:53.419Z,-24
2022-12-19T13:31:57.153Z,-25
2022-12-19T13:33:58.898Z,-26.5
2022-12-19T13:36:49.350Z,-24
2022-12-19T13:39:47.222Z,-19
2022-12-19T13:42:05.727Z,-23
2022-12-19T13:44:06.945Z,-25.3
2022-12-19T13:46:09.005Z,-26.5
2022-12-19T13:48:10.874Z,-26.3
2022-12-19T13:50:12.557Z,-27.5
2022-12-19T13:52:13.812Z,-27.3
2022-12-19T13:54:15.196Z,-27.9
2022-12-19T13:56:16.392Z,-28.3
2022-12-19T13:58:18.344Z,-28
2022-12-19T14:00:20.272Z,-28.2
2022-12-19T14:02:22.169Z,-28.2
2022-12-19T14:04:23.578Z,-27.9
2022-12-19T14:06:25.449Z,-28.2
2022-12-19T14:08:27.322Z,-27.8
2022-12-19T14:11:26.987Z,-26.4
2022-12-19T14:14:32.320Z,-27.1
2022-12-19T14:16:34.875Z,-27.2
2022-12-19T14:18:43.861Z,-27.8
2022-12-19T14:22:08.353Z,-28.2
2022-12-19T14:24:40.457Z,-27.8
2022-12-19T14:28:15.941Z,-28
2022-12-19T14:28:47.620Z,-28.2
2022-12-19T14:30:45.627Z,-27.9
2022-12-19T14:33:41.481Z,-28
2022-12-19T14:35:55.251Z,-28.2
2022-12-19T14:36:50.987Z,-28.2
2022-12-19T14:41:07.758Z,-28.2
2022-12-19T14:43:58.078Z,-27.9
2022-12-19T14:49:58.287Z,-28
2022-12-19T14:50:16.461Z,-27.9
2022-12-19T14:50:16.515Z,-28
2022-12-19T14:54:42.420Z,-28.3
2022-12-19T14:56:03.548Z,-28.3
2022-12-19T14:57:07.966Z,-28.1
2022-12-19T14:59:09.424Z,-28
2022-12-19T15:01:11.886Z,-27.9
2022-12-19T15:03:15.795Z,-28.2
2022-12-19T15:05:13.899Z,-28.2
2022-12-19T15:07:15.879Z,-28.2
2022-12-19T15:10:24.171Z,-28.2
2022-12-19T15:11:29.380Z,-28
2022-12-19T15:14:20.991Z,-28.2
2022-12-19T15:15:22.003Z,-27.9
2022-12-19T15:17:24.016Z,-28
2022-12-19T15:19:25.629Z,-28.2
2022-12-19T15:21:27.724Z,-28.1
2022-12-19T15:23:28.526Z,-28
2022-12-19T15:26:01.851Z,-28
2022-12-19T15:27:31.676Z,-27.9
2022-12-19T15:29:33.179Z,-28
2022-12-19T15:31:35.366Z,-28.3
2022-12-19T15:35:38.068Z,-28.2
2022-12-19T15:39:40.272Z,-28
2022-12-19T15:41:42.151Z,-27.9
2022-12-19T15:45:44.741Z,-28
2022-12-19T15:49:48.275Z,-28.1
2022-12-19T15:51:50.289Z,-28
2022-12-19T15:53:52.311Z,-28.2
2022-12-19T15:55:53.576Z,-28
2022-12-19T15:57:55.280Z,-28
2022-12-19T15:59:56.530Z,-28.2
2022-12-19T16:03:22.986Z,-28
2022-12-19T16:04:43.839Z,-28
2022-12-19T16:06:45.492Z,-28.3
2022-12-19T16:08:47.462Z,-27.9
2022-12-19T16:10:48.991Z,-28
2022-12-19T16:12:50.376Z,-28.1
2022-12-19T16:16:53.362Z,-28.4
2022-12-19T16:18:54.774Z,-28
2022-12-19T16:20:56.516Z,-28.1
2022-12-19T16:22:58.354Z,-28.3
2022-12-19T16:29:02.950Z,-28.1
2022-12-19T16:31:04.967Z,-28.2
2022-12-19T16:33:06.564Z,-27.9
2022-12-19T16:35:08.319Z,-28.2
2022-12-19T16:37:09.979Z,-28
2022-12-19T16:39:11.317Z,-28.3
2022-12-19T16:41:12.776Z,-28.3
2022-12-19T16:43:14.238Z,-28.3
2022-12-19T16:45:15.737Z,-28.2
2022-12-19T16:47:17.101Z,-28.1
2022-12-19T16:49:19.001Z,-28.1
2022-12-19T16:51:20.120Z,-28
2022-12-19T16:53:22.027Z,-28.4
2022-12-19T16:55:23.531Z,-28.3
2022-12-19T16:57:24.948Z,-28.3
2022-12-19T16:59:26.728Z,-28
2022-12-19T17:01:28.139Z,-27.9
2022-12-19T17:03:29.999Z,-28.2
2022-12-19T17:05:31.907Z,-28.2
2022-12-19T17:11:36.570Z,-28
2022-12-19T17:13:38.365Z,-28.2
2022-12-19T17:15:40.092Z,-28
2022-12-19T17:17:41.597Z,-28.2
2022-12-19T17:19:43.363Z,-27.9
2022-12-19T17:21:45.042Z,-28.2
2022-12-19T17:23:46.298Z,-28
2022-12-19T17:25:47.380Z,-28.4
2022-12-19T17:27:48.688Z,-28.2
2022-12-19T17:29:50.447Z,-28.1
2022-12-19T17:31:52.086Z,-28.3
2022-12-19T17:33:53.752Z,-28.4
2022-12-19T17:35:55.664Z,-28.2
2022-12-19T17:37:56.720Z,-27.9
2022-12-19T17:42:00.333Z,-28.3
2022-12-19T17:44:01.529Z,-27.9
2022-12-19T17:46:03.044Z,-27.9
2022-12-19T17:48:04.275Z,-28.5
2022-12-19T17:50:06.085Z,-27.9
2022-12-19T17:52:07.603Z,-27.9
2022-12-19T17:54:09.477Z,-27.9
2022-12-19T17:56:11.012Z,-28.3
2022-12-19T17:58:13.035Z,-28.4
2022-12-19T18:00:14.150Z,-28.4
2022-12-19T18:02:15.994Z,-28
2022-12-19T18:04:17.421Z,-27.9
2022-12-19T18:06:18.465Z,-28.3
2022-12-19T18:08:20.180Z,-28
2022-12-19T18:10:22.036Z,-28.2
2022-12-19T18:14:25.129Z,-27.8
2022-12-19T18:16:26.370Z,-27.8
2022-12-19T18:18:28.266Z,-27.9
2022-12-19T18:20:32.090Z,-28.2
2022-12-19T18:26:35.600Z,-27.9
2022-12-19T18:28:37.487Z,-28.2
2022-12-19T18:30:39.033Z,-28.2
2022-12-19T18:32:40.120Z,-28
2022-12-19T18:34:41.746Z,-28.1
2022-12-19T18:36:42.879Z,-28.2
2022-12-19T18:38:43.996Z,-28.2
2022-12-19T18:40:45.969Z,-27.9
2022-12-19T18:42:47.563Z,-28
2022-12-19T18:44:48.901Z,-28.4
2022-12-19T18:46:50.900Z,-28.4
2022-12-19T18:48:52.479Z,-28
2022-12-19T18:50:54.152Z,-28.1
2022-12-19T18:52:55.610Z,-28.2
2022-12-19T18:54:57.557Z,-27.8
2022-12-19T18:56:58.649Z,-28.2
2022-12-19T18:58:59.955Z,-28.3
2022-12-19T19:01:01.265Z,-28
2022-12-19T19:03:02.604Z,-28.3
2022-12-19T19:05:04.483Z,-28.3
2022-12-19T19:09:07.956Z,-28.3
2022-12-19T19:11:09.009Z,-28.2
2022-12-19T19:13:10.704Z,-28.4
2022-12-19T19:15:11.495Z,-28.3
2022-12-19T19:17:13.532Z,-27.9
2022-12-19T19:19:15.429Z,-28.1
2022-12-19T19:23:18.686Z,-28.2
2022-12-19T19:25:19.924Z,-28.3
2022-12-19T19:27:21.518Z,-28.2
2022-12-19T19:29:23.465Z,-28.2
2022-12-19T19:31:24.631Z,-28.2
2022-12-19T19:33:26.396Z,-28.2
2022-12-19T19:35:28.152Z,-28.1
2022-12-19T19:37:30.111Z,-28.3
2022-12-19T19:39:31.722Z,-28.2
2022-12-19T19:41:33.166Z,-28.3
2022-12-19T19:43:35.438Z,-28.1
2022-12-19T19:45:41.262Z,-28.3
2022-12-19T19:47:37.476Z,-28
2022-12-19T19:49:38.696Z,-28
2022-12-19T19:51:40.512Z,-28.5
2022-12-19T19:53:42.049Z,-28.2
2022-12-19T19:55:43.546Z,-27.9
2022-12-19T19:57:45.360Z,-28
2022-12-19T19:59:47.228Z,-28
2022-12-19T20:01:48.621Z,-28
2022-12-19T20:05:51.765Z,-28
2022-12-19T20:07:53.027Z,-28.1
2022-12-19T20:09:54.620Z,-27.9
2022-12-19T20:11:56.608Z,-28.2
2022-12-19T20:13:57.718Z,-28
2022-12-19T20:15:59.233Z,-28.2
2022-12-19T20:18:00.379Z,-28.2
2022-12-19T20:20:02.270Z,-28
2022-12-19T20:22:03.914Z,-28.3
2022-12-19T20:24:05.805Z,-28.3
2022-12-19T20:26:07.717Z,-28
2022-12-19T20:28:08.853Z,-27.9
2022-12-19T20:30:10.069Z,-28.2
2022-12-19T20:32:11.994Z,-28.5
2022-12-19T20:34:13.282Z,-28.1
2022-12-19T20:36:15.015Z,-28
2022-12-19T20:38:17.091Z,-28.3
2022-12-19T20:40:18.538Z,-28
2022-12-19T20:42:20.350Z,-28.2
2022-12-19T20:44:24.026Z,-28
2022-12-19T20:50:26.301Z,-27.9
2022-12-19T20:52:28.290Z,-28
2022-12-19T20:54:29.276Z,-28.3
2022-12-19T20:56:31.250Z,-28.1
2022-12-19T20:58:32.829Z,-27.9
2022-12-19T21:00:33.885Z,-27.9
2022-12-19T21:04:36.964Z,-28.3
2022-12-19T21:06:38.765Z,-27.9
2022-12-19T21:08:40.086Z,-27.7
2022-12-19T21:10:41.669Z,-28.1
2022-12-19T21:14:45.278Z,-28.3
2022-12-19T21:16:47.331Z,-28.2
2022-12-19T21:20:49.990Z,-28
2022-12-19T21:22:51.606Z,-27.9
2022-12-19T21:24:53.111Z,-28
2022-12-19T21:26:57.900Z,-28
2022-12-19T21:32:58.737Z,-28.3
2022-12-19T21:35:00.769Z,-27.9
2022-12-19T21:37:01.904Z,-28.2
2022-12-19T21:39:03.890Z,-28.9
2022-12-19T21:41:05.835Z,-29.2
2022-12-19T21:43:11.588Z,-28.3
2022-12-19T21:49:12.393Z,-29.8
2022-12-19T21:51:13.776Z,-28.9
2022-12-19T21:53:15.633Z,-28.3
2022-12-19T21:55:17.575Z,-28.1
2022-12-19T21:59:19.992Z,-28.2
2022-12-19T22:01:21.463Z,-27.9
2022-12-19T22:03:23.381Z,-28
2022-12-19T22:05:24.464Z,-28.2
2022-12-19T22:07:26.149Z,-28.1
2022-12-19T22:09:27.668Z,-28
2022-12-19T22:11:29.017Z,-29.2
2022-12-19T22:13:30.346Z,-28.6
2022-12-19T22:15:31.761Z,-28.4
2022-12-19T22:17:33.359Z,-28.2
2022-12-19T22:19:35.383Z,-28.2
2022-12-19T22:23:38.340Z,-28.1
2022-12-19T22:25:39.611Z,-28.2
2022-12-19T22:27:41.281Z,-28.2
2022-12-19T22:29:42.645Z,-28.3
2022-12-19T22:31:44.221Z,-28.4
2022-12-19T22:33:45.712Z,-28.2
2022-12-19T22:35:47.093Z,-28.2
2022-12-19T22:37:48.724Z,-28.2
2022-12-19T22:41:51.636Z,-28.4
2022-12-19T22:45:55.210Z,-28.2
2022-12-19T22:46:39.130Z,-27.9
2022-12-19T22:50:42.927Z,-27.9
2022-12-19T22:52:44.442Z,-28.3
2022-12-19T22:54:46.496Z,-28.3
2022-12-19T22:56:47.782Z,-28.2
2022-12-19T22:58:49.310Z,-28.4
2022-12-19T23:00:50.430Z,-28.2
2022-12-19T23:02:52.456Z,-28
2022-12-19T23:04:54.237Z,-28.3
2022-12-19T23:06:55.607Z,-28.2
2022-12-19T23:08:56.718Z,-28.4
2022-12-19T23:10:58.334Z,-28.3
2022-12-19T23:13:00.395Z,-28.3
2022-12-19T23:15:01.977Z,-28.3
2022-12-19T23:17:03.278Z,-28.2
2022-12-19T23:19:04.780Z,-28.1
2022-12-19T23:23:07.814Z,-28.2
2022-12-19T23:25:09.802Z,-28.2
2022-12-19T23:27:11.247Z,-28.2
2022-12-19T23:29:12.783Z,-28.3
2022-12-19T23:33:16.670Z,-28.1
2022-12-19T23:35:18.279Z,-28.2
2022-12-19T23:37:19.804Z,-28.2
2022-12-19T23:39:21.727Z,-28.1
2022-12-19T23:41:23.198Z,-28.2
2022-12-19T23:43:24.688Z,-28.2
2022-12-19T23:45:25.769Z,-28.3
2022-12-19T23:47:27.151Z,-28
2022-12-19T23:49:28.505Z,-28.1
2022-12-19T23:51:29.589Z,-28
2022-12-19T23:53:31.169Z,-27.9
2022-12-19T23:55:33.173Z,-28.1
2022-12-19T23:57:34.909Z,-28.1
2022-12-19T23:59:36.143Z,-28.3
